Lewiston, Michigan
Current Conditions -  °F | °C
As of 3:53 PM on Friday 31 Oct 2014 (Local Time) from KGLR Reporting Station
Overcast Overcast  
Wind Chill: 21°   Ceiling: 2000
Heat Index: 30°   Visibility: 10mi
Dew Point: 24°   Wind: 10mph
Humidity: 79%   Direction: 20°NNE
Pressure: 30.17"   Gusts: 20mph
Location:  44.88°N, 84.31°W
Report Text: KGLR 311953Z AUTO 02009G17KT 320V050 10SM BKN020 OVC030 M01/M04 A3017 RMK AO2 UPB1858E06 SLP233 P0000 T10111044
Loading
Personal Weather Stations






























Interactive Weather Map
Tropical Storm Tracking
New forecast layout! Learn more

10-Day Weather Forecast

Advertisements
Track Severe Weather on mobile